createdAt,value
2023-04-18T00:02:23.664Z,70.00
2023-04-18T00:04:50.621Z,70.10
2023-04-18T00:07:17.901Z,70.10
2023-04-18T00:09:44.829Z,70.10
2023-04-18T00:12:12.170Z,70.10
2023-04-18T00:14:39.027Z,70.10
2023-04-18T00:17:09.313Z,70.00
2023-04-18T00:19:43.102Z,70.00
2023-04-18T00:22:10.672Z,70.00
2023-04-18T00:24:37.262Z,69.90
2023-04-18T00:27:03.972Z,69.80
2023-04-18T00:29:31.747Z,70.00
2023-04-18T00:31:58.577Z,69.90
2023-04-18T00:34:25.228Z,69.80
2023-04-18T00:36:51.920Z,69.80
2023-04-18T00:39:18.602Z,69.80
2023-04-18T00:41:45.477Z,69.90
2023-04-18T00:44:12.302Z,69.90
2023-04-18T00:46:39.146Z,69.80
2023-04-18T00:49:06.345Z,69.80
2023-04-18T00:51:35.548Z,69.70
2023-04-18T00:54:05.553Z,69.80
2023-04-18T00:56:32.336Z,69.70
2023-04-18T00:58:59.244Z,69.60
2023-04-18T01:01:26.120Z,69.50
2023-04-18T01:03:52.859Z,69.60
2023-04-18T01:06:19.998Z,69.50
2023-04-18T01:08:46.872Z,69.40
2023-04-18T01:11:13.608Z,69.30
2023-04-18T01:13:40.260Z,69.30
2023-04-18T01:16:07.143Z,69.30
2023-04-18T01:18:35.012Z,69.20
2023-04-18T01:21:02.312Z,69.20
2023-04-18T01:23:29.553Z,69.20
2023-04-18T01:25:56.241Z,69.20
2023-04-18T01:28:22.966Z,69.10
2023-04-18T01:30:49.834Z,69.10
2023-04-18T01:33:16.555Z,69.10
2023-04-18T01:35:43.321Z,69.10
2023-04-18T01:38:09.972Z,69.00
2023-04-18T01:40:36.731Z,69.00
2023-04-18T01:43:03.330Z,68.90
2023-04-18T01:45:30.085Z,68.90
2023-04-18T01:47:56.792Z,68.80
2023-04-18T01:52:50.584Z,66.10
2023-04-18T01:55:17.280Z,67.70
2023-04-18T01:57:44.247Z,68.10
2023-04-18T02:00:11.533Z,68.20
2023-04-18T02:02:38.407Z,68.20
2023-04-18T02:05:05.592Z,68.10
2023-04-18T02:07:32.221Z,68.20
2023-04-18T02:09:58.872Z,68.20
2023-04-18T02:12:25.633Z,68.10
2023-04-18T02:14:53.530Z,68.20
2023-04-18T02:17:21.498Z,68.10
2023-04-18T02:19:48.225Z,68.10
2023-04-18T02:22:14.914Z,67.80
2023-04-18T02:24:41.526Z,67.80
2023-04-18T02:27:08.416Z,67.80
2023-04-18T02:29:35.156Z,67.90
2023-04-18T02:32:02.043Z,67.80
2023-04-18T02:34:28.742Z,67.50
2023-04-18T02:36:55.364Z,67.50
2023-04-18T02:39:22.009Z,67.40
2023-04-18T02:41:48.626Z,67.60
2023-04-18T02:44:15.557Z,67.60
2023-04-18T02:46:42.304Z,67.50
2023-04-18T02:49:08.972Z,67.30
2023-04-18T02:51:35.592Z,67.10
2023-04-18T02:54:02.347Z,67.00
2023-04-18T02:56:29.025Z,67.10
2023-04-18T02:58:55.689Z,67.30
2023-04-18T03:01:22.375Z,67.50
2023-04-18T03:03:49.041Z,67.40
2023-04-18T03:06:15.792Z,67.40
2023-04-18T03:08:42.598Z,67.50
2023-04-18T03:11:09.339Z,67.40
2023-04-18T03:13:35.967Z,67.40
2023-04-18T03:16:02.840Z,67.00
2023-04-18T03:18:29.558Z,67.30
2023-04-18T03:20:56.264Z,67.00
2023-04-18T03:23:22.961Z,67.30
2023-04-18T03:25:49.650Z,67.10
2023-04-18T03:28:16.304Z,67.10
2023-04-18T03:30:42.919Z,67.00
2023-04-18T03:33:09.596Z,67.10
2023-04-18T03:35:36.367Z,67.00
2023-04-18T03:38:03.001Z,67.10
2023-04-18T03:40:29.641Z,67.20
2023-04-18T03:42:56.318Z,67.00
2023-04-18T03:45:22.965Z,66.90
2023-04-18T03:47:49.587Z,67.10
2023-04-18T03:50:16.558Z,67.10
2023-04-18T03:52:43.235Z,67.20
2023-04-18T03:55:09.992Z,67.00
2023-04-18T03:57:36.789Z,67.10
2023-04-18T04:00:07.951Z,67.00
2023-04-18T04:02:34.722Z,67.20
2023-04-18T04:05:03.176Z,67.10
2023-04-18T04:07:30.031Z,67.20
2023-04-18T04:09:57.485Z,66.90
2023-04-18T04:12:25.001Z,67.00
2023-04-18T04:14:51.875Z,66.80
2023-04-18T04:17:18.631Z,66.90
2023-04-18T04:19:45.330Z,66.90
2023-04-18T04:22:11.981Z,66.60
2023-04-18T04:24:39.509Z,66.70
2023-04-18T04:27:06.236Z,66.70
2023-04-18T04:29:32.852Z,66.70
2023-04-18T04:31:59.629Z,66.70
2023-04-18T04:34:26.766Z,66.70
2023-04-18T04:36:54.352Z,66.60
2023-04-18T04:39:21.222Z,66.70
2023-04-18T04:41:48.486Z,66.80
2023-04-18T04:44:18.193Z,66.70
2023-04-18T04:46:45.197Z,66.80
2023-04-18T04:49:12.238Z,66.90
2023-04-18T04:51:40.032Z,66.90
2023-04-18T04:54:06.815Z,67.10
2023-04-18T04:56:33.627Z,67.00
2023-04-18T04:59:00.881Z,67.00
2023-04-18T05:03:54.822Z,66.90
2023-04-18T05:06:22.677Z,66.90
2023-04-18T05:08:51.663Z,66.70
2023-04-18T05:11:18.477Z,66.50
2023-04-18T05:13:45.170Z,66.80
2023-04-18T05:16:12.469Z,66.70
2023-04-18T05:18:41.033Z,66.70
2023-04-18T05:21:07.762Z,66.90
2023-04-18T05:23:37.279Z,67.10
2023-04-18T05:26:05.322Z,67.00
2023-04-18T05:28:32.356Z,67.00
2023-04-18T05:31:02.109Z,67.10
2023-04-18T05:33:30.675Z,67.30
2023-04-18T05:35:58.067Z,67.20
2023-04-18T05:38:25.469Z,67.30
2023-04-18T05:40:52.296Z,67.20
2023-04-18T05:43:19.672Z,67.20
2023-04-18T05:45:46.489Z,67.40
2023-04-18T05:48:13.842Z,67.50
2023-04-18T05:50:40.821Z,67.50
2023-04-18T05:53:07.516Z,67.50
2023-04-18T05:55:34.375Z,67.70
2023-04-18T09:07:41.985Z,62.60
2023-04-18T09:10:09.951Z,62.60
2023-04-18T09:12:50.219Z,63.60
2023-04-18T09:15:20.823Z,64.40
2023-04-18T09:17:51.075Z,64.10
2023-04-18T09:20:41.008Z,65.00
2023-04-18T09:23:14.488Z,65.60
2023-04-18T09:25:43.300Z,64.50
2023-04-18T09:28:28.743Z,64.50
2023-04-18T09:30:57.333Z,64.30
2023-04-18T09:33:29.438Z,64.90
2023-04-18T09:36:16.721Z,64.50
2023-04-18T09:38:44.086Z,64.60
2023-04-18T09:41:11.923Z,64.90
2023-04-18T09:43:39.140Z,63.50
2023-04-18T09:46:07.293Z,64.70
2023-04-18T09:48:34.178Z,63.70
2023-04-18T09:51:06.589Z,63.90
2023-04-18T09:53:38.312Z,62.90
2023-04-18T09:56:08.892Z,62.60
2023-04-18T09:58:40.897Z,62.60
2023-04-18T10:01:08.017Z,63.40
2023-04-18T10:03:44.339Z,63.20
2023-04-18T10:06:14.629Z,62.80
2023-04-18T10:08:41.414Z,63.10
2023-04-18T10:11:08.129Z,63.50
2023-04-18T10:13:38.246Z,62.20
2023-04-18T10:16:05.383Z,63.60
2023-04-18T10:18:32.204Z,62.40
2023-04-18T10:21:05.617Z,60.70
2023-04-18T10:23:32.393Z,62.00
2023-04-18T10:25:59.260Z,62.00
2023-04-18T10:28:27.458Z,59.90
2023-04-18T10:30:56.560Z,60.20
2023-04-18T10:36:09.204Z,60.00
2023-04-18T10:38:45.237Z,60.40
2023-04-18T10:41:15.161Z,61.20
2023-04-18T10:44:08.499Z,61.30
2023-04-18T10:46:51.295Z,61.60
2023-04-18T10:49:31.107Z,61.70
2023-04-18T10:52:00.333Z,61.30
2023-04-18T10:54:58.494Z,61.30
2023-04-18T10:57:36.873Z,60.90
2023-04-18T11:00:05.122Z,61.20
2023-04-18T11:02:33.398Z,62.60
2023-04-18T11:05:02.912Z,62.90
2023-04-18T11:07:34.186Z,61.60
2023-04-18T11:10:01.912Z,61.10
2023-04-18T11:12:33.378Z,63.20
2023-04-18T11:15:03.504Z,62.60
2023-04-18T11:17:41.479Z,63.30
2023-04-18T11:20:12.741Z,60.50
2023-04-18T11:22:48.744Z,62.20
2023-04-18T11:25:16.740Z,60.20
2023-04-18T11:27:47.945Z,61.20
2023-04-18T11:30:15.462Z,61.50
2023-04-18T11:32:42.334Z,61.10
2023-04-18T11:35:11.028Z,59.10
2023-04-18T11:37:39.271Z,59.30
2023-04-18T11:40:08.383Z,58.70
2023-04-18T11:42:36.098Z,58.60
2023-04-18T11:45:03.571Z,59.60
2023-04-18T11:47:33.963Z,57.70
2023-04-18T11:50:02.658Z,59.00
2023-04-18T11:52:31.268Z,59.80
2023-04-18T11:55:22.009Z,61.90
2023-04-18T11:57:57.034Z,61.50
2023-04-18T12:00:38.479Z,63.70
2023-04-18T12:03:12.584Z,63.10
2023-04-18T12:05:40.207Z,61.90
2023-04-18T12:08:18.894Z,63.10
2023-04-18T12:10:52.800Z,59.20
2023-04-18T12:13:25.768Z,60.70
2023-04-18T12:15:53.358Z,61.90
2023-04-18T12:18:20.342Z,60.60
2023-04-18T12:20:52.319Z,61.40
2023-04-18T12:23:40.208Z,61.90
2023-04-18T12:26:11.220Z,62.90
2023-04-18T12:28:37.915Z,60.00
2023-04-18T12:31:08.059Z,60.20
2023-04-18T12:33:36.604Z,60.70
2023-04-18T12:36:05.382Z,61.80
2023-04-18T12:38:32.068Z,61.90
2023-04-18T12:40:58.762Z,61.00
2023-04-18T12:43:25.770Z,61.70
2023-04-18T12:45:52.555Z,63.50
2023-04-18T12:48:19.199Z,61.90
2023-04-18T12:50:45.839Z,60.70
2023-04-18T12:53:12.475Z,61.20
2023-04-18T12:55:39.226Z,62.60
2023-04-18T12:58:05.847Z,62.80
2023-04-18T13:00:32.866Z,63.20
2023-04-18T13:03:00.109Z,62.10
2023-04-18T13:05:32.078Z,62.60
2023-04-18T13:08:15.458Z,63.80
2023-04-18T13:10:43.587Z,62.60
2023-04-18T13:13:10.403Z,62.20
2023-04-18T13:15:37.135Z,61.50
2023-04-18T13:18:06.162Z,63.60
2023-04-18T13:20:34.340Z,63.70
2023-04-18T13:23:02.597Z,63.00
2023-04-18T13:25:29.336Z,63.20
2023-04-18T13:27:58.452Z,63.70
2023-04-18T13:30:25.499Z,62.60
2023-04-18T13:32:52.264Z,64.30
2023-04-18T13:35:18.999Z,63.70
2023-04-18T13:37:46.266Z,63.50
2023-04-18T13:40:13.580Z,63.10
2023-04-18T13:42:40.401Z,64.60
2023-04-18T13:45:07.665Z,63.50
2023-04-18T13:47:34.871Z,63.10
2023-04-18T13:50:01.694Z,63.00
2023-04-18T13:52:28.497Z,62.40
2023-04-18T13:54:55.415Z,61.90
2023-04-18T13:57:23.067Z,61.70
2023-04-18T13:59:49.738Z,60.60
2023-04-18T14:02:16.545Z,61.00
2023-04-18T14:04:43.724Z,60.10
2023-04-18T14:07:10.751Z,60.30
2023-04-18T14:09:37.458Z,61.50
2023-04-18T14:12:04.442Z,62.50
2023-04-18T14:14:31.052Z,60.20
2023-04-18T14:16:57.737Z,61.00
2023-04-18T14:19:24.883Z,60.40
2023-04-18T14:21:51.579Z,61.90
2023-04-18T14:24:18.304Z,60.70
2023-04-18T14:26:44.998Z,60.70
2023-04-18T14:29:11.833Z,60.00
2023-04-18T14:31:38.643Z,61.10
2023-04-18T14:34:06.431Z,59.90
2023-04-18T14:36:33.018Z,59.70
2023-04-18T14:38:59.726Z,59.70
2023-04-18T14:41:26.328Z,59.50
2023-04-18T14:43:53.161Z,61.10
2023-04-18T14:46:21.400Z,61.10
2023-04-18T14:48:48.095Z,60.90
2023-04-18T14:51:16.269Z,60.90
2023-04-18T14:53:43.430Z,60.10
2023-04-18T14:56:10.178Z,60.20
2023-04-18T14:58:36.883Z,60.60
2023-04-18T15:01:04.352Z,60.80
2023-04-18T15:03:31.522Z,60.10
2023-04-18T15:05:58.349Z,61.20
2023-04-18T15:08:25.215Z,63.00
2023-04-18T15:10:51.872Z,63.10
2023-04-18T15:13:18.495Z,62.90
2023-04-18T15:15:51.950Z,62.90
2023-04-18T15:18:18.576Z,63.70
2023-04-18T15:20:45.264Z,62.60
2023-04-18T15:23:13.578Z,61.60
2023-04-18T15:25:41.177Z,62.40
2023-04-18T15:28:07.782Z,63.00
2023-04-18T15:30:34.422Z,62.40
2023-04-18T15:33:02.284Z,62.40
2023-04-18T15:35:29.101Z,63.60
2023-04-18T15:37:56.474Z,64.60
2023-04-18T15:40:23.418Z,64.70
2023-04-18T15:42:50.956Z,62.10
2023-04-18T15:45:17.723Z,62.30
2023-04-18T15:47:44.406Z,63.30
2023-04-18T15:50:11.386Z,63.40
2023-04-18T15:52:40.744Z,63.90
2023-04-18T15:55:10.036Z,64.40
2023-04-18T15:57:37.176Z,63.80
2023-04-18T16:00:10.047Z,64.70
2023-04-18T16:02:39.255Z,65.20
2023-04-18T16:05:07.385Z,64.30
2023-04-18T16:07:34.342Z,64.60
2023-04-18T16:10:02.844Z,64.20
2023-04-18T16:12:29.537Z,62.70
2023-04-18T16:14:56.119Z,63.30
2023-04-18T16:17:22.776Z,63.50
2023-04-18T16:19:49.451Z,63.80
2023-04-18T16:22:16.184Z,64.60
2023-04-18T16:24:42.810Z,64.00
2023-04-18T16:27:09.455Z,64.00
2023-04-18T16:29:36.136Z,64.30
2023-04-18T16:32:02.934Z,64.70
2023-04-18T16:34:29.576Z,64.30
2023-04-18T16:36:56.208Z,64.10
2023-04-18T16:39:22.839Z,64.00
2023-04-18T16:41:49.417Z,64.90
2023-04-18T16:44:16.248Z,63.30
2023-04-18T16:46:43.198Z,63.70
2023-04-18T16:49:09.897Z,63.20
2023-04-18T16:51:37.718Z,63.40
2023-04-18T16:54:05.681Z,64.50
2023-04-18T16:56:32.379Z,64.30
2023-04-18T16:58:59.057Z,64.90
2023-04-18T17:01:25.855Z,64.20
2023-04-18T17:03:52.617Z,65.00
2023-04-18T17:06:19.437Z,65.00
2023-04-18T17:08:46.312Z,64.80
2023-04-18T17:11:12.965Z,64.80
2023-04-18T17:13:39.672Z,63.90
2023-04-18T17:16:07.405Z,63.90
2023-04-18T17:18:34.099Z,64.50
2023-04-18T17:21:00.805Z,64.60
2023-04-18T17:23:27.547Z,64.90
2023-04-18T17:25:54.208Z,64.50
2023-04-18T17:28:21.970Z,64.80
2023-04-18T17:30:49.978Z,64.30
2023-04-18T17:33:16.663Z,64.50
2023-04-18T17:35:43.317Z,64.40
2023-04-18T17:38:10.782Z,64.30
2023-04-18T17:40:37.537Z,64.40
2023-04-18T17:43:04.229Z,64.60
2023-04-18T17:45:31.015Z,64.30
2023-04-18T17:47:59.296Z,64.70
2023-04-18T17:50:26.092Z,64.80
2023-04-18T17:52:53.159Z,65.00
2023-04-18T17:55:20.020Z,65.00
2023-04-18T17:57:46.744Z,65.30
2023-04-18T18:00:14.463Z,65.50
2023-04-18T18:02:42.384Z,65.30
2023-04-18T18:05:13.392Z,64.30
2023-04-18T18:07:42.954Z,65.10
2023-04-18T18:10:10.553Z,65.10
2023-04-18T18:12:38.105Z,65.30
2023-04-18T18:15:05.533Z,65.60
2023-04-18T18:17:32.252Z,65.50
2023-04-18T18:19:59.054Z,65.40
2023-04-18T18:22:26.240Z,65.70
2023-04-18T18:24:52.982Z,65.90
2023-04-18T18:27:22.882Z,66.10
2023-04-18T18:29:52.568Z,65.80
2023-04-18T18:32:19.219Z,66.00
2023-04-18T18:34:45.866Z,65.90
2023-04-18T18:37:12.592Z,66.30
2023-04-18T18:39:39.415Z,66.20
2023-04-18T18:42:06.091Z,65.70
2023-04-18T18:44:33.303Z,65.80
2023-04-18T18:47:00.066Z,66.00
2023-04-18T18:49:27.375Z,66.10
2023-04-18T18:51:54.140Z,66.10
2023-04-18T18:54:20.866Z,66.10
2023-04-18T18:56:48.103Z,66.30
2023-04-18T18:59:15.715Z,66.30
2023-04-18T19:01:42.766Z,66.40
2023-04-18T19:04:09.689Z,66.60
2023-04-18T19:06:36.390Z,66.70
2023-04-18T19:09:03.666Z,66.70
2023-04-18T19:11:30.466Z,66.80
2023-04-18T19:13:57.148Z,66.90
2023-04-18T19:16:23.937Z,66.80
2023-04-18T19:18:50.764Z,67.00
2023-04-18T19:21:17.579Z,66.90
2023-04-18T19:23:44.195Z,66.90
2023-04-18T19:26:10.848Z,67.10
2023-04-18T19:28:37.701Z,67.00
2023-04-18T19:31:04.487Z,67.00
2023-04-18T19:33:31.170Z,67.20
2023-04-18T19:35:58.816Z,67.30
2023-04-18T19:38:25.523Z,67.20
2023-04-18T19:40:52.313Z,67.30
2023-04-18T19:43:18.938Z,67.40
2023-04-18T19:45:45.678Z,67.50
2023-04-18T19:48:12.477Z,67.50
2023-04-18T19:50:40.451Z,67.50
2023-04-18T19:53:07.197Z,67.60
2023-04-18T19:55:34.110Z,67.70
2023-04-18T19:58:00.885Z,67.80
2023-04-18T20:00:28.352Z,67.80
2023-04-18T20:02:55.476Z,67.80
2023-04-18T20:05:22.670Z,67.80
2023-04-18T20:07:49.367Z,67.90
2023-04-18T20:10:16.078Z,67.90
2023-04-18T20:12:42.672Z,67.90
2023-04-18T20:15:09.734Z,67.90
2023-04-18T20:17:36.409Z,67.90
2023-04-18T20:20:04.465Z,68.00
2023-04-18T20:22:32.866Z,67.90
2023-04-18T20:25:01.876Z,67.80
2023-04-18T20:27:30.243Z,68.00
2023-04-18T20:29:57.527Z,67.80
2023-04-18T20:32:24.234Z,67.80
2023-04-18T20:34:51.356Z,67.90
2023-04-18T20:37:19.897Z,67.80
2023-04-18T20:39:46.563Z,67.80
2023-04-18T20:42:14.670Z,67.80
2023-04-18T20:44:46.610Z,67.80
2023-04-18T20:47:15.432Z,67.80
2023-04-18T20:49:42.599Z,67.90
2023-04-18T20:52:14.229Z,67.90
2023-04-18T20:54:41.698Z,67.80
2023-04-18T20:57:08.547Z,67.90
2023-04-18T20:59:35.321Z,67.80
2023-04-18T21:02:02.154Z,67.90
2023-04-18T21:04:29.741Z,67.90
2023-04-18T21:06:56.619Z,67.90
2023-04-18T21:09:23.313Z,68.00
2023-04-18T21:11:50.066Z,68.00
2023-04-18T21:14:17.171Z,68.10
2023-04-18T21:16:44.157Z,68.00
2023-04-18T21:19:10.983Z,67.90
2023-04-18T21:21:37.652Z,68.00
2023-04-18T21:24:05.670Z,68.10
2023-04-18T21:26:32.352Z,68.00
2023-04-18T21:29:01.392Z,68.00
2023-04-18T21:31:30.778Z,67.90
2023-04-18T21:34:00.486Z,68.00
2023-04-18T21:36:28.448Z,67.90
2023-04-18T21:38:56.180Z,68.00
2023-04-18T21:41:24.379Z,68.00
2023-04-18T21:43:51.729Z,68.00
2023-04-18T21:46:19.049Z,68.00
2023-04-18T21:48:47.124Z,68.00
2023-04-18T21:51:16.199Z,68.00
2023-04-18T21:53:43.169Z,67.80
2023-04-18T21:56:09.920Z,67.90
2023-04-18T21:58:36.595Z,67.90
2023-04-18T22:01:03.510Z,67.90
2023-04-18T22:03:31.629Z,67.90
2023-04-18T22:05:58.791Z,67.90
2023-04-18T22:08:25.817Z,67.90
2023-04-18T22:10:57.601Z,67.80
2023-04-18T22:13:25.887Z,67.80
2023-04-18T22:15:52.563Z,67.90
2023-04-18T22:18:19.245Z,67.90
2023-04-18T22:20:49.519Z,67.90
2023-04-18T22:23:16.094Z,67.90
2023-04-18T22:25:42.710Z,67.90
2023-04-18T22:28:09.372Z,67.90
2023-04-18T22:30:36.237Z,68.00
2023-04-18T22:33:03.055Z,68.00
2023-04-18T22:35:29.818Z,68.00
2023-04-18T22:37:56.544Z,67.90
2023-04-18T22:40:23.228Z,67.90
2023-04-18T22:42:51.841Z,67.90
2023-04-18T22:45:19.363Z,67.90
2023-04-18T22:47:46.670Z,68.00
2023-04-18T22:50:14.190Z,68.00
2023-04-18T22:52:41.170Z,67.90
2023-04-18T22:55:08.818Z,68.00
2023-04-18T22:57:35.601Z,68.00
2023-04-18T23:00:04.069Z,67.90
2023-04-18T23:02:30.728Z,68.00
2023-04-18T23:04:58.955Z,68.00
2023-04-18T23:07:25.697Z,68.00
2023-04-18T23:09:52.595Z,68.00
2023-04-18T23:12:19.532Z,67.90
2023-04-18T23:14:46.294Z,68.00
2023-04-18T23:17:12.881Z,68.10
2023-04-18T23:19:39.625Z,68.00
2023-04-18T23:22:06.228Z,68.10
2023-04-18T23:24:32.858Z,68.00
2023-04-18T23:26:59.514Z,68.10
2023-04-18T23:29:26.161Z,68.10
2023-04-18T23:31:52.891Z,68.10
2023-04-18T23:34:19.558Z,68.20
2023-04-18T23:36:46.643Z,68.20
2023-04-18T23:39:13.626Z,68.20
2023-04-18T23:41:40.806Z,68.20
2023-04-18T23:44:07.480Z,68.20
2023-04-18T23:46:36.235Z,68.30
2023-04-18T23:49:03.532Z,68.30
2023-04-18T23:51:30.994Z,68.30
2023-04-18T23:53:57.613Z,68.30
2023-04-18T23:56:24.308Z,68.30
2023-04-18T23:58:50.916Z,68.30
